Terminal Aerodrome Forecast
Issued by NWS Shreveport, LA

Home | Current Version | Previous Version | Text Only | Print | Product List | Glossary On
Versions: 1 2 3 4 5 6 7 8 9 10 11 12 13 14 15
265
FTUS44 KSHV 040523
TAFELD
TAF
KELD 040523Z 0406/0506 35005KT P6SM SCT060
     FM040900 VRB03KT P6SM SCT150
     FM041400 28006KT P6SM SCT050
     FM041700 27016G22KT P6SM SCT050=

USA.gov is the U.S. government's official web portal to all federal, state and local government web resources and services.